KGA1 HKMO-HKJK
Flight info
| Callsign | KGA1 |
|---|---|
| Flight time | 1h 19m |
| Altitude | 12000 |
| Route | NERAG1A UTIKU Q315 UTEPI UTEPI1A |
| Aircraft | AEST/L-SDFGRY/S |
Departure
| Time | 2026-04-26 09:42 |
|---|---|
| Airport | Moi International Airport (HKMO) |
Arrival
| Time | 2026-04-26 11:02 |
|---|---|
| Airport | Jomo Kenyatta International Airport (HKJK) |
| Time | Latitude | Longitude | Altitude | Speed | Heading |
|---|---|---|---|---|---|
| 2026-04-26 09:11 | -4.02981 | 39.60109 | 200 ft | 0 kts | 209° |
| 2026-04-26 09:36 | -4.03021 | 39.60082 | 200 ft | 11 kts | 236° |
| 2026-04-26 09:36 | -4.02986 | 39.59990 | 200 ft | 19 kts | 298° |
| 2026-04-26 09:37 | -4.02869 | 39.59974 | 200 ft | 23 kts | 30° |
| 2026-04-26 09:37 | -4.02717 | 39.60055 | 204 ft | 25 kts | 28° |
| 2026-04-26 09:37 | -4.02567 | 39.60140 | 200 ft | 25 kts | 25° |
| 2026-04-26 09:37 | -4.02419 | 39.60223 | 200 ft | 24 kts | 28° |
| 2026-04-26 09:38 | -4.02275 | 39.60305 | 200 ft | 24 kts | 29° |
| 2026-04-26 09:38 | -4.02131 | 39.60383 | 200 ft | 23 kts | 31° |
| 2026-04-26 09:38 | -4.01990 | 39.60462 | 200 ft | 23 kts | 29° |
| 2026-04-26 09:38 | -4.01853 | 39.60540 | 200 ft | 22 kts | 30° |
| 2026-04-26 09:39 | -4.01717 | 39.60614 | 202 ft | 23 kts | 28° |
| 2026-04-26 09:39 | -4.01650 | 39.60656 | 202 ft | 0 kts | 34° |
| 2026-04-26 09:39 | -4.01643 | 39.60660 | 200 ft | 3 kts | 29° |
| 2026-04-26 09:39 | -4.01589 | 39.60688 | 204 ft | 9 kts | 26° |
| 2026-04-26 09:40 | -4.01519 | 39.60721 | 200 ft | 13 kts | 24° |
| 2026-04-26 09:40 | -4.01460 | 39.60741 | 200 ft | 14 kts | 354° |
| 2026-04-26 09:40 | -4.01375 | 39.60711 | 205 ft | 11 kts | 323° |
| 2026-04-26 09:40 | -4.01358 | 39.60697 | 200 ft | 0 kts | 315° |
| 2026-04-26 09:41 | -4.01355 | 39.60694 | 200 ft | 4 kts | 314° |
| 2026-04-26 09:41 | -4.01347 | 39.60642 | 200 ft | 9 kts | 244° |
| 2026-04-26 09:41 | -4.01391 | 39.60603 | 203 ft | 11 kts | 210° |
| 2026-04-26 09:41 | -4.01678 | 39.60437 | 200 ft | 81 kts | 209° |
| 2026-04-26 09:42 | -4.02236 | 39.60143 | 280 ft | 95 kts | 206° |
| 2026-04-26 09:42 | -4.02877 | 39.59836 | 350 ft | 117 kts | 194° |
| 2026-04-26 09:42 | -4.03680 | 39.59536 | 699 ft | 127 kts | 198° |
| 2026-04-26 09:42 | -4.04655 | 39.59285 | 926 ft | 145 kts | 194° |
| 2026-04-26 09:43 | -4.05523 | 39.58987 | 1661 ft | 129 kts | 210° |
| 2026-04-26 09:43 | -4.06309 | 39.58413 | 1863 ft | 153 kts | 209° |
| 2026-04-26 09:43 | -4.07395 | 39.58001 | 1839 ft | 179 kts | 189° |
| 2026-04-26 09:43 | -4.08691 | 39.57861 | 1788 ft | 196 kts | 186° |
| 2026-04-26 09:44 | -4.10045 | 39.57674 | 1981 ft | 192 kts | 202° |
| 2026-04-26 09:44 | -4.10825 | 39.56881 | 3223 ft | 128 kts | 237° |
| 2026-04-26 09:44 | -4.11186 | 39.56032 | 3663 ft | 149 kts | 241° |
| 2026-04-26 09:44 | -4.11588 | 39.55007 | 3836 ft | 163 kts | 253° |
| 2026-04-26 09:45 | -4.11548 | 39.53894 | 4366 ft | 159 kts | 277° |
| 2026-04-26 09:45 | -4.11172 | 39.52850 | 4848 ft | 162 kts | 285° |
| 2026-04-26 09:45 | -4.10793 | 39.51757 | 5182 ft | 168 kts | 281° |
| 2026-04-26 09:45 | -4.10591 | 39.50619 | 5544 ft | 173 kts | 261° |
| 2026-04-26 09:46 | -4.10995 | 39.49500 | 5815 ft | 171 kts | 233° |
| 2026-04-26 09:46 | -4.11271 | 39.48343 | 6006 ft | 180 kts | 269° |
| 2026-04-26 09:46 | -4.10935 | 39.47114 | 6255 ft | 187 kts | 294° |
| 2026-04-26 09:46 | -4.10117 | 39.46091 | 6530 ft | 190 kts | 309° |
| 2026-04-26 09:47 | -4.09211 | 39.45118 | 6825 ft | 191 kts | 309° |
| 2026-04-26 09:47 | -4.08349 | 39.44105 | 7119 ft | 192 kts | 298° |
| 2026-04-26 09:47 | -4.07504 | 39.43012 | 7099 ft | 206 kts | 311° |
| 2026-04-26 09:47 | -4.06381 | 39.42048 | 7043 ft | 219 kts | 319° |
| 2026-04-26 09:48 | -4.05173 | 39.41062 | 7020 ft | 227 kts | 318° |
| 2026-04-26 09:48 | -4.03937 | 39.40071 | 7020 ft | 229 kts | 320° |
| 2026-04-26 09:48 | -4.02680 | 39.39077 | 7027 ft | 232 kts | 319° |
| 2026-04-26 09:48 | -4.01465 | 39.38027 | 7025 ft | 235 kts | 319° |
| 2026-04-26 09:49 | -4.00183 | 39.36993 | 7013 ft | 237 kts | 319° |
| 2026-04-26 09:49 | -3.98800 | 39.36090 | 7011 ft | 239 kts | 328° |
| 2026-04-26 09:49 | -3.97421 | 39.35166 | 7023 ft | 239 kts | 319° |
| 2026-04-26 09:49 | -3.96228 | 39.34030 | 7015 ft | 234 kts | 311° |
| 2026-04-26 09:50 | -3.95130 | 39.32828 | 7020 ft | 234 kts | 310° |
| 2026-04-26 09:50 | -3.94014 | 39.31643 | 7018 ft | 234 kts | 311° |
| 2026-04-26 09:50 | -3.92902 | 39.30494 | 7215 ft | 223 kts | 311° |
| 2026-04-26 09:50 | -3.91846 | 39.29405 | 7459 ft | 214 kts | 312° |
| 2026-04-26 09:51 | -3.90817 | 39.28346 | 7661 ft | 210 kts | 312° |
| 2026-04-26 09:51 | -3.89793 | 39.27295 | 7828 ft | 211 kts | 312° |
| 2026-04-26 09:51 | -3.88767 | 39.26237 | 7993 ft | 211 kts | 311° |
| 2026-04-26 09:51 | -3.87764 | 39.25193 | 8148 ft | 210 kts | 312° |
| 2026-04-26 09:52 | -3.86734 | 39.24138 | 8299 ft | 213 kts | 312° |
| 2026-04-26 09:52 | -3.84667 | 39.22004 | 8598 ft | 212 kts | 313° |
| 2026-04-26 09:52 | -3.83638 | 39.20944 | 8751 ft | 210 kts | 313° |
| 2026-04-26 09:53 | -3.82620 | 39.19903 | 8887 ft | 211 kts | 312° |
| 2026-04-26 09:53 | -3.81598 | 39.18849 | 9040 ft | 209 kts | 312° |
| 2026-04-26 09:53 | -3.80597 | 39.17808 | 9184 ft | 208 kts | 312° |
| 2026-04-26 09:53 | -3.79596 | 39.16776 | 9331 ft | 205 kts | 313° |
| 2026-04-26 09:54 | -3.78607 | 39.15757 | 9469 ft | 204 kts | 313° |
| 2026-04-26 09:54 | -3.77599 | 39.14724 | 9592 ft | 209 kts | 313° |
| 2026-04-26 09:54 | -3.76605 | 39.13697 | 9706 ft | 206 kts | 313° |
| 2026-04-26 09:54 | -3.75610 | 39.12662 | 9808 ft | 207 kts | 313° |
| 2026-04-26 09:55 | -3.74601 | 39.11623 | 9913 ft | 209 kts | 313° |
| 2026-04-26 09:55 | -3.73576 | 39.10581 | 10006 ft | 210 kts | 313° |
| 2026-04-26 09:55 | -3.72558 | 39.09537 | 10095 ft | 207 kts | 312° |
| 2026-04-26 09:55 | -3.71564 | 39.08503 | 10183 ft | 204 kts | 313° |
| 2026-04-26 09:56 | -3.70573 | 39.07479 | 10271 ft | 206 kts | 313° |
| 2026-04-26 09:56 | -3.69575 | 39.06453 | 10348 ft | 204 kts | 313° |
| 2026-04-26 09:56 | -3.68615 | 39.05453 | 10429 ft | 200 kts | 313° |
| 2026-04-26 09:56 | -3.67647 | 39.04451 | 10496 ft | 202 kts | 313° |
| 2026-04-26 09:57 | -3.66666 | 39.03446 | 10569 ft | 200 kts | 313° |
| 2026-04-26 09:57 | -3.65679 | 39.02439 | 10615 ft | 206 kts | 313° |
| 2026-04-26 09:57 | -3.64666 | 39.01396 | 10545 ft | 209 kts | 313° |
| 2026-04-26 09:57 | -3.63645 | 39.00342 | 10563 ft | 213 kts | 313° |
| 2026-04-26 09:58 | -3.62610 | 38.99280 | 10587 ft | 212 kts | 313° |
| 2026-04-26 09:58 | -3.61585 | 38.98221 | 10607 ft | 213 kts | 313° |
| 2026-04-26 09:58 | -3.60547 | 38.97154 | 10629 ft | 212 kts | 313° |
| 2026-04-26 09:58 | -3.59537 | 38.96101 | 10646 ft | 209 kts | 313° |
| 2026-04-26 09:59 | -3.58514 | 38.95047 | 10661 ft | 213 kts | 313° |
| 2026-04-26 09:59 | -3.57485 | 38.93989 | 10680 ft | 212 kts | 313° |
| 2026-04-26 09:59 | -3.56473 | 38.92938 | 10709 ft | 208 kts | 313° |
| 2026-04-26 09:59 | -3.55466 | 38.91897 | 10726 ft | 207 kts | 314° |
| 2026-04-26 10:00 | -3.54449 | 38.90862 | 10741 ft | 210 kts | 313° |
| 2026-04-26 10:00 | -3.53417 | 38.89816 | 10757 ft | 211 kts | 313° |
| 2026-04-26 10:00 | -3.52402 | 38.88770 | 10773 ft | 209 kts | 313° |
| 2026-04-26 10:00 | -3.51406 | 38.87738 | 10787 ft | 211 kts | 313° |
| 2026-04-26 10:01 | -3.50374 | 38.86682 | 10803 ft | 212 kts | 313° |
| 2026-04-26 10:01 | -3.49355 | 38.85628 | 10817 ft | 210 kts | 313° |
| 2026-04-26 10:01 | -3.48339 | 38.84576 | 10834 ft | 209 kts | 313° |
| 2026-04-26 10:01 | -3.47335 | 38.83530 | 10853 ft | 208 kts | 313° |
| 2026-04-26 10:02 | -3.46320 | 38.82483 | 10868 ft | 210 kts | 313° |
| 2026-04-26 10:02 | -3.45313 | 38.81441 | 10884 ft | 207 kts | 313° |
| 2026-04-26 10:02 | -3.44303 | 38.80397 | 10895 ft | 208 kts | 313° |
| 2026-04-26 10:02 | -3.43302 | 38.79357 | 10907 ft | 206 kts | 313° |
| 2026-04-26 10:03 | -3.42302 | 38.78323 | 10914 ft | 209 kts | 313° |
| 2026-04-26 10:03 | -3.41280 | 38.77280 | 10925 ft | 209 kts | 313° |
| 2026-04-26 10:03 | -3.40272 | 38.76239 | 10935 ft | 208 kts | 313° |
| 2026-04-26 10:03 | -3.39260 | 38.75195 | 10955 ft | 210 kts | 313° |
| 2026-04-26 10:04 | -3.38250 | 38.74161 | 10969 ft | 211 kts | 313° |
| 2026-04-26 10:04 | -3.37225 | 38.73111 | 10975 ft | 210 kts | 313° |
| 2026-04-26 10:04 | -3.36218 | 38.72064 | 10990 ft | 208 kts | 312° |
| 2026-04-26 10:04 | -3.35224 | 38.71023 | 10995 ft | 207 kts | 312° |
| 2026-04-26 10:05 | -3.34216 | 38.69978 | 11001 ft | 209 kts | 313° |
| 2026-04-26 10:05 | -3.33212 | 38.68935 | 10999 ft | 206 kts | 313° |
| 2026-04-26 10:05 | -3.32219 | 38.67897 | 11009 ft | 206 kts | 313° |
| 2026-04-26 10:05 | -3.31218 | 38.66864 | 11015 ft | 207 kts | 313° |
| 2026-04-26 10:06 | -3.30212 | 38.65833 | 11034 ft | 208 kts | 313° |
| 2026-04-26 10:06 | -3.29199 | 38.64801 | 11039 ft | 207 kts | 313° |
| 2026-04-26 10:06 | -3.28203 | 38.63765 | 11047 ft | 206 kts | 313° |
| 2026-04-26 10:06 | -3.27198 | 38.62726 | 11054 ft | 207 kts | 313° |
| 2026-04-26 10:07 | -3.26205 | 38.61702 | 11065 ft | 208 kts | 313° |
| 2026-04-26 10:07 | -3.25194 | 38.60662 | 11070 ft | 209 kts | 313° |
| 2026-04-26 10:07 | -3.24186 | 38.59620 | 11075 ft | 207 kts | 313° |
| 2026-04-26 10:07 | -3.23189 | 38.58586 | 11103 ft | 207 kts | 313° |
| 2026-04-26 10:08 | -3.22183 | 38.57548 | 11153 ft | 207 kts | 313° |
| 2026-04-26 10:08 | -3.21179 | 38.56512 | 11202 ft | 206 kts | 313° |
| 2026-04-26 10:08 | -3.20188 | 38.55483 | 11239 ft | 204 kts | 313° |
| 2026-04-26 10:08 | -3.19218 | 38.54482 | 11353 ft | 199 kts | 313° |
| 2026-04-26 10:09 | -3.18258 | 38.53497 | 11493 ft | 195 kts | 313° |
| 2026-04-26 10:09 | -3.17341 | 38.52559 | 11781 ft | 182 kts | 313° |
| 2026-04-26 10:09 | -3.16451 | 38.51638 | 11802 ft | 185 kts | 313° |
| 2026-04-26 10:09 | -3.15560 | 38.50717 | 11962 ft | 182 kts | 313° |
| 2026-04-26 10:10 | -3.14664 | 38.49793 | 11961 ft | 186 kts | 313° |
| 2026-04-26 10:10 | -3.13766 | 38.48862 | 11954 ft | 189 kts | 313° |
| 2026-04-26 10:10 | -3.12847 | 38.47909 | 11970 ft | 189 kts | 313° |
| 2026-04-26 10:10 | -3.11944 | 38.46974 | 12010 ft | 190 kts | 313° |
| 2026-04-26 10:11 | -3.11015 | 38.46019 | 12007 ft | 192 kts | 313° |
| 2026-04-26 10:11 | -3.10085 | 38.45058 | 12009 ft | 192 kts | 313° |
| 2026-04-26 10:11 | -3.09149 | 38.44093 | 12010 ft | 193 kts | 313° |
| 2026-04-26 10:11 | -3.08214 | 38.43127 | 12010 ft | 193 kts | 314° |
| 2026-04-26 10:12 | -3.07271 | 38.42156 | 12008 ft | 196 kts | 314° |
| 2026-04-26 10:12 | -3.06318 | 38.41178 | 12007 ft | 195 kts | 313° |
| 2026-04-26 10:12 | -3.05350 | 38.40226 | 12000 ft | 195 kts | 324° |
| 2026-04-26 10:12 | -3.04129 | 38.39670 | 12008 ft | 196 kts | 341° |
| 2026-04-26 10:13 | -3.02814 | 38.39237 | 12008 ft | 196 kts | 342° |
| 2026-04-26 10:13 | -3.01531 | 38.38819 | 12005 ft | 196 kts | 342° |
| 2026-04-26 10:13 | -3.00250 | 38.38367 | 12003 ft | 195 kts | 335° |
| 2026-04-26 10:13 | -2.99128 | 38.37607 | 12005 ft | 196 kts | 317° |
| 2026-04-26 10:14 | -2.98156 | 38.36646 | 12008 ft | 197 kts | 314° |
| 2026-04-26 10:14 | -2.97207 | 38.35668 | 12010 ft | 196 kts | 313° |
| 2026-04-26 10:14 | -2.96252 | 38.34684 | 12018 ft | 196 kts | 313° |
| 2026-04-26 10:14 | -2.95303 | 38.33705 | 12019 ft | 197 kts | 313° |
| 2026-04-26 10:15 | -2.94343 | 38.32717 | 12008 ft | 198 kts | 313° |
| 2026-04-26 10:15 | -2.93386 | 38.31729 | 12010 ft | 197 kts | 313° |
| 2026-04-26 10:15 | -2.92436 | 38.30745 | 12010 ft | 197 kts | 313° |
| 2026-04-26 10:15 | -2.91478 | 38.29760 | 12007 ft | 197 kts | 313° |
| 2026-04-26 10:16 | -2.90524 | 38.28777 | 12009 ft | 196 kts | 313° |
| 2026-04-26 10:16 | -2.89579 | 38.27796 | 12018 ft | 195 kts | 313° |
| 2026-04-26 10:16 | -2.88637 | 38.26818 | 12020 ft | 196 kts | 313° |
| 2026-04-26 10:16 | -2.87687 | 38.25838 | 12023 ft | 197 kts | 313° |
| 2026-04-26 10:17 | -2.86730 | 38.24851 | 12020 ft | 197 kts | 314° |
| 2026-04-26 10:17 | -2.85810 | 38.23866 | 12017 ft | 196 kts | 305° |
| 2026-04-26 10:17 | -2.85300 | 38.22614 | 12028 ft | 195 kts | 284° |
| 2026-04-26 10:17 | -2.84907 | 38.21312 | 12014 ft | 196 kts | 286° |
| 2026-04-26 10:18 | -2.84501 | 38.20016 | 12013 ft | 195 kts | 286° |
| 2026-04-26 10:18 | -2.84021 | 38.18756 | 12018 ft | 195 kts | 302° |
| 2026-04-26 10:18 | -2.83136 | 38.17717 | 12030 ft | 197 kts | 313° |
| 2026-04-26 10:18 | -2.82185 | 38.16726 | 12031 ft | 198 kts | 313° |
| 2026-04-26 10:19 | -2.81410 | 38.15598 | 12029 ft | 195 kts | 307° |
| 2026-04-26 10:19 | -2.80502 | 38.14586 | 12022 ft | 197 kts | 312° |
| 2026-04-26 10:19 | -2.79572 | 38.13587 | 12027 ft | 195 kts | 313° |
| 2026-04-26 10:19 | -2.78625 | 38.12605 | 12032 ft | 197 kts | 314° |
| 2026-04-26 10:20 | -2.77670 | 38.11623 | 12026 ft | 196 kts | 314° |
| 2026-04-26 10:20 | -2.77040 | 38.10975 | 12024 ft | 196 kts | 314° |
| 2026-04-26 10:20 | -2.75787 | 38.09682 | 12030 ft | 195 kts | 314° |
| 2026-04-26 10:20 | -2.74842 | 38.08707 | 12042 ft | 195 kts | 314° |
| 2026-04-26 10:21 | -2.73889 | 38.07728 | 12040 ft | 197 kts | 314° |
| 2026-04-26 10:21 | -2.72935 | 38.06743 | 12043 ft | 196 kts | 314° |
| 2026-04-26 10:21 | -2.71984 | 38.05761 | 12044 ft | 197 kts | 314° |
| 2026-04-26 10:21 | -2.71026 | 38.04774 | 12042 ft | 199 kts | 314° |
| 2026-04-26 10:22 | -2.70057 | 38.03776 | 12042 ft | 200 kts | 314° |
| 2026-04-26 10:22 | -2.69094 | 38.02782 | 12044 ft | 198 kts | 314° |
| 2026-04-26 10:22 | -2.68131 | 38.01788 | 12040 ft | 198 kts | 314° |
| 2026-04-26 10:22 | -2.67165 | 38.00793 | 12037 ft | 200 kts | 314° |
| 2026-04-26 10:23 | -2.66194 | 37.99792 | 12053 ft | 200 kts | 314° |
| 2026-04-26 10:23 | -2.65228 | 37.98794 | 12048 ft | 199 kts | 314° |
| 2026-04-26 10:23 | -2.64276 | 37.97814 | 12053 ft | 200 kts | 314° |
| 2026-04-26 10:23 | -2.63308 | 37.96817 | 12052 ft | 198 kts | 314° |
| 2026-04-26 10:24 | -2.62346 | 37.95825 | 12050 ft | 199 kts | 314° |
| 2026-04-26 10:24 | -2.61384 | 37.94834 | 12046 ft | 197 kts | 314° |
| 2026-04-26 10:24 | -2.60430 | 37.93851 | 12051 ft | 197 kts | 314° |
| 2026-04-26 10:24 | -2.59474 | 37.92866 | 12049 ft | 197 kts | 314° |
| 2026-04-26 10:25 | -2.58515 | 37.91878 | 12054 ft | 198 kts | 314° |
| 2026-04-26 10:25 | -2.57557 | 37.90890 | 12057 ft | 197 kts | 314° |
| 2026-04-26 10:25 | -2.56606 | 37.89907 | 12064 ft | 196 kts | 314° |
| 2026-04-26 10:25 | -2.55666 | 37.88939 | 12064 ft | 197 kts | 314° |
| 2026-04-26 10:26 | -2.54710 | 37.87954 | 12063 ft | 197 kts | 314° |
| 2026-04-26 10:26 | -2.53760 | 37.86974 | 12058 ft | 196 kts | 314° |
| 2026-04-26 10:26 | -2.52814 | 37.85998 | 12063 ft | 194 kts | 314° |
| 2026-04-26 10:26 | -2.51871 | 37.85030 | 12060 ft | 194 kts | 314° |
| 2026-04-26 10:27 | -2.50928 | 37.84059 | 12064 ft | 195 kts | 314° |
| 2026-04-26 10:27 | -2.49994 | 37.83096 | 12064 ft | 195 kts | 314° |
| 2026-04-26 10:27 | -2.49052 | 37.82123 | 12064 ft | 195 kts | 314° |
| 2026-04-26 10:27 | -2.48100 | 37.81142 | 12069 ft | 196 kts | 314° |
| 2026-04-26 10:28 | -2.47151 | 37.80164 | 12071 ft | 196 kts | 314° |
| 2026-04-26 10:28 | -2.46202 | 37.79186 | 12072 ft | 197 kts | 314° |
| 2026-04-26 10:28 | -2.45254 | 37.78208 | 12070 ft | 195 kts | 314° |
| 2026-04-26 10:28 | -2.44307 | 37.77234 | 12069 ft | 196 kts | 314° |
| 2026-04-26 10:29 | -2.43355 | 37.76253 | 12068 ft | 196 kts | 314° |
| 2026-04-26 10:29 | -2.42417 | 37.75286 | 12067 ft | 196 kts | 314° |
| 2026-04-26 10:29 | -2.41472 | 37.74312 | 12076 ft | 195 kts | 314° |
| 2026-04-26 10:29 | -2.40526 | 37.73338 | 12070 ft | 195 kts | 314° |
| 2026-04-26 10:30 | -2.39577 | 37.72362 | 12071 ft | 196 kts | 314° |
| 2026-04-26 10:30 | -2.38947 | 37.71712 | 12073 ft | 196 kts | 314° |
| 2026-04-26 10:30 | -2.38004 | 37.70733 | 12082 ft | 196 kts | 314° |
| 2026-04-26 10:30 | -2.37054 | 37.69753 | 12082 ft | 197 kts | 315° |
| 2026-04-26 10:31 | -2.36096 | 37.68770 | 12081 ft | 197 kts | 315° |
| 2026-04-26 10:31 | -2.35138 | 37.67787 | 12078 ft | 197 kts | 315° |
| 2026-04-26 10:31 | -2.34188 | 37.66809 | 12078 ft | 196 kts | 315° |
| 2026-04-26 10:31 | -2.33248 | 37.65842 | 12081 ft | 196 kts | 314° |
| 2026-04-26 10:32 | -2.32295 | 37.64860 | 12078 ft | 197 kts | 314° |
| 2026-04-26 10:32 | -2.31345 | 37.63880 | 12083 ft | 196 kts | 314° |
| 2026-04-26 10:32 | -2.30396 | 37.62902 | 12082 ft | 196 kts | 314° |
| 2026-04-26 10:32 | -2.29442 | 37.61919 | 12092 ft | 197 kts | 314° |
| 2026-04-26 10:33 | -2.28486 | 37.60934 | 12090 ft | 198 kts | 314° |
| 2026-04-26 10:33 | -2.27524 | 37.59943 | 12088 ft | 198 kts | 314° |
| 2026-04-26 10:33 | -2.26576 | 37.58968 | 12089 ft | 197 kts | 314° |
| 2026-04-26 10:33 | -2.25617 | 37.57980 | 12089 ft | 197 kts | 314° |
| 2026-04-26 10:34 | -2.24661 | 37.56994 | 12089 ft | 198 kts | 314° |
| 2026-04-26 10:34 | -2.23700 | 37.56005 | 12089 ft | 198 kts | 314° |
| 2026-04-26 10:34 | -2.22743 | 37.55020 | 12091 ft | 197 kts | 314° |
| 2026-04-26 10:34 | -2.21791 | 37.54040 | 12089 ft | 196 kts | 314° |
| 2026-04-26 10:35 | -2.20838 | 37.53057 | 12090 ft | 197 kts | 314° |
| 2026-04-26 10:35 | -2.19885 | 37.52076 | 12094 ft | 196 kts | 314° |
| 2026-04-26 10:35 | -2.18936 | 37.51100 | 12092 ft | 196 kts | 314° |
| 2026-04-26 10:35 | -2.18000 | 37.50135 | 12106 ft | 196 kts | 314° |
| 2026-04-26 10:36 | -2.17050 | 37.49156 | 12103 ft | 196 kts | 314° |
| 2026-04-26 10:36 | -2.16097 | 37.48174 | 12106 ft | 197 kts | 314° |
| 2026-04-26 10:36 | -2.15147 | 37.47197 | 12105 ft | 196 kts | 314° |
| 2026-04-26 10:36 | -2.14197 | 37.46214 | 12106 ft | 197 kts | 315° |
| 2026-04-26 10:37 | -2.13242 | 37.45232 | 12106 ft | 197 kts | 315° |
| 2026-04-26 10:37 | -2.12287 | 37.44252 | 12108 ft | 196 kts | 315° |
| 2026-04-26 10:37 | -2.11330 | 37.43267 | 12108 ft | 196 kts | 315° |
| 2026-04-26 10:37 | -2.10393 | 37.42303 | 12112 ft | 196 kts | 315° |
| 2026-04-26 10:38 | -2.09450 | 37.41312 | 12112 ft | 197 kts | 314° |
| 2026-04-26 10:38 | -2.08513 | 37.40316 | 12115 ft | 196 kts | 314° |
| 2026-04-26 10:38 | -2.07576 | 37.39323 | 12117 ft | 196 kts | 314° |
| 2026-04-26 10:38 | -2.06641 | 37.38335 | 12115 ft | 195 kts | 314° |
| 2026-04-26 10:39 | -2.05704 | 37.37341 | 12132 ft | 197 kts | 314° |
| 2026-04-26 10:39 | -2.04760 | 37.36343 | 12131 ft | 197 kts | 314° |
| 2026-04-26 10:39 | -2.03829 | 37.35344 | 12127 ft | 196 kts | 309° |
| 2026-04-26 10:39 | -2.03165 | 37.34178 | 12136 ft | 195 kts | 295° |
| 2026-04-26 10:40 | -2.02581 | 37.32930 | 12129 ft | 196 kts | 295° |
| 2026-04-26 10:40 | -2.02016 | 37.31707 | 12132 ft | 197 kts | 295° |
| 2026-04-26 10:40 | -2.01440 | 37.30460 | 12138 ft | 198 kts | 295° |
| 2026-04-26 10:40 | -2.00860 | 37.29212 | 12140 ft | 198 kts | 295° |
| 2026-04-26 10:41 | -2.00279 | 37.27960 | 12136 ft | 198 kts | 295° |
| 2026-04-26 10:41 | -1.99695 | 37.26705 | 12136 ft | 199 kts | 295° |
| 2026-04-26 10:41 | -1.99112 | 37.25451 | 12132 ft | 199 kts | 295° |
| 2026-04-26 10:41 | -1.98527 | 37.24194 | 12133 ft | 199 kts | 295° |
| 2026-04-26 10:42 | -1.97942 | 37.22934 | 12138 ft | 200 kts | 295° |
| 2026-04-26 10:42 | -1.97360 | 37.21676 | 12141 ft | 199 kts | 295° |
| 2026-04-26 10:42 | -1.96774 | 37.20419 | 12144 ft | 199 kts | 295° |
| 2026-04-26 10:42 | -1.96198 | 37.19184 | 12142 ft | 199 kts | 295° |
| 2026-04-26 10:43 | -1.95616 | 37.17933 | 12139 ft | 199 kts | 295° |
| 2026-04-26 10:43 | -1.95035 | 37.16682 | 12136 ft | 197 kts | 295° |
| 2026-04-26 10:43 | -1.94457 | 37.15442 | 12153 ft | 196 kts | 295° |
| 2026-04-26 10:43 | -1.93722 | 37.14299 | 12163 ft | 196 kts | 315° |
| 2026-04-26 10:44 | -1.92726 | 37.13367 | 12162 ft | 195 kts | 319° |
| 2026-04-26 10:44 | -1.91739 | 37.12430 | 12163 ft | 196 kts | 316° |
| 2026-04-26 10:44 | -1.90776 | 37.11458 | 12164 ft | 195 kts | 315° |
| 2026-04-26 10:44 | -1.89829 | 37.10480 | 12161 ft | 196 kts | 315° |
| 2026-04-26 10:45 | -1.88881 | 37.09502 | 12163 ft | 196 kts | 315° |
| 2026-04-26 10:45 | -1.87943 | 37.08539 | 12162 ft | 196 kts | 315° |
| 2026-04-26 10:45 | -1.86990 | 37.07557 | 12160 ft | 197 kts | 315° |
| 2026-04-26 10:45 | -1.86034 | 37.06580 | 12159 ft | 195 kts | 315° |
| 2026-04-26 10:46 | -1.85084 | 37.05602 | 12158 ft | 196 kts | 315° |
| 2026-04-26 10:46 | -1.84130 | 37.04621 | 12157 ft | 197 kts | 315° |
| 2026-04-26 10:46 | -1.83175 | 37.03639 | 12167 ft | 197 kts | 315° |
| 2026-04-26 10:46 | -1.82219 | 37.02662 | 12179 ft | 196 kts | 315° |
| 2026-04-26 10:47 | -1.81270 | 37.01689 | 12177 ft | 195 kts | 315° |
| 2026-04-26 10:47 | -1.80322 | 37.00711 | 12176 ft | 196 kts | 315° |
| 2026-04-26 10:47 | -1.79370 | 36.99733 | 12178 ft | 195 kts | 315° |
| 2026-04-26 10:47 | -1.78402 | 36.98743 | 12004 ft | 204 kts | 315° |
| 2026-04-26 10:48 | -1.77409 | 36.97723 | 11827 ft | 211 kts | 315° |
| 2026-04-26 10:48 | -1.76368 | 36.96651 | 11635 ft | 217 kts | 315° |
| 2026-04-26 10:48 | -1.75299 | 36.95554 | 11446 ft | 223 kts | 315° |
| 2026-04-26 10:48 | -1.74213 | 36.94442 | 11245 ft | 225 kts | 314° |
| 2026-04-26 10:49 | -1.73111 | 36.93310 | 11017 ft | 231 kts | 314° |
| 2026-04-26 10:49 | -1.71981 | 36.92147 | 10788 ft | 234 kts | 314° |
| 2026-04-26 10:49 | -1.71156 | 36.91302 | 10563 ft | 238 kts | 314° |
| 2026-04-26 10:49 | -1.70240 | 36.90363 | 10337 ft | 243 kts | 314° |
| 2026-04-26 10:50 | -1.69058 | 36.89148 | 10063 ft | 243 kts | 314° |
| 2026-04-26 10:50 | -1.68275 | 36.88341 | 9878 ft | 244 kts | 314° |
| 2026-04-26 10:50 | -1.66675 | 36.86699 | 9485 ft | 247 kts | 314° |
| 2026-04-26 10:50 | -1.65476 | 36.85468 | 9232 ft | 247 kts | 314° |
| 2026-04-26 10:51 | -1.64297 | 36.84256 | 9089 ft | 242 kts | 314° |
| 2026-04-26 10:51 | -1.62038 | 36.81940 | 9164 ft | 227 kts | 314° |
| 2026-04-26 10:51 | -1.60944 | 36.80815 | 9192 ft | 224 kts | 314° |
| 2026-04-26 10:52 | -1.59866 | 36.79705 | 9173 ft | 222 kts | 314° |
| 2026-04-26 10:52 | -1.58786 | 36.78599 | 9178 ft | 223 kts | 314° |
| 2026-04-26 10:52 | -1.57701 | 36.77486 | 9174 ft | 223 kts | 314° |
| 2026-04-26 10:52 | -1.56623 | 36.76376 | 9179 ft | 222 kts | 314° |
| 2026-04-26 10:53 | -1.55552 | 36.75274 | 9178 ft | 218 kts | 314° |
| 2026-04-26 10:53 | -1.54519 | 36.74216 | 9164 ft | 208 kts | 314° |
| 2026-04-26 10:53 | -1.53520 | 36.73189 | 9162 ft | 203 kts | 314° |
| 2026-04-26 10:54 | -1.51555 | 36.71310 | 9164 ft | 192 kts | 327° |
| 2026-04-26 10:54 | -1.50550 | 36.70465 | 9170 ft | 187 kts | 329° |
| 2026-04-26 10:54 | -1.49317 | 36.70143 | 9163 ft | 185 kts | 5° |
| 2026-04-26 10:54 | -1.48054 | 36.70261 | 9163 ft | 182 kts | 358° |
| 2026-04-26 10:55 | -1.46846 | 36.70549 | 9049 ft | 190 kts | 36° |
| 2026-04-26 10:55 | -1.46070 | 36.71594 | 8967 ft | 188 kts | 76° |
| 2026-04-26 10:55 | -1.46093 | 36.72821 | 9193 ft | 170 kts | 110° |
| 2026-04-26 10:55 | -1.46383 | 36.73944 | 9113 ft | 176 kts | 85° |
| 2026-04-26 10:56 | -1.45974 | 36.75163 | 8948 ft | 185 kts | 61° |
| 2026-04-26 10:56 | -1.45144 | 36.76057 | 9169 ft | 175 kts | 33° |
| 2026-04-26 10:56 | -1.43982 | 36.76377 | 9172 ft | 176 kts | 359° |
| 2026-04-26 10:56 | -1.42758 | 36.76632 | 8916 ft | 192 kts | 32° |
| 2026-04-26 10:57 | -1.41699 | 36.77434 | 8942 ft | 184 kts | 44° |
| 2026-04-26 10:57 | -1.41001 | 36.78460 | 8894 ft | 184 kts | 81° |
| 2026-04-26 10:57 | -1.40864 | 36.79720 | 8824 ft | 184 kts | 85° |
| 2026-04-26 10:57 | -1.40586 | 36.80955 | 8837 ft | 175 kts | 67° |
| 2026-04-26 10:58 | -1.39893 | 36.81918 | 8280 ft | 169 kts | 51° |
| 2026-04-26 10:58 | -1.39128 | 36.82740 | 8011 ft | 142 kts | 49° |
| 2026-04-26 10:58 | -1.38473 | 36.83372 | 7485 ft | 128 kts | 43° |
| 2026-04-26 10:58 | -1.37923 | 36.84060 | 7208 ft | 128 kts | 59° |
| 2026-04-26 10:59 | -1.37452 | 36.84802 | 6996 ft | 125 kts | 62° |
| 2026-04-26 10:59 | -1.37010 | 36.85533 | 6807 ft | 125 kts | 60° |
| 2026-04-26 10:59 | -1.36622 | 36.86333 | 6373 ft | 132 kts | 70° |
| 2026-04-26 10:59 | -1.36174 | 36.87081 | 6164 ft | 128 kts | 49° |
| 2026-04-26 11:00 | -1.35648 | 36.87767 | 6011 ft | 122 kts | 56° |
| 2026-04-26 11:00 | -1.35130 | 36.88419 | 5949 ft | 120 kts | 50° |
| 2026-04-26 11:00 | -1.34585 | 36.89052 | 5877 ft | 118 kts | 56° |
| 2026-04-26 11:00 | -1.34130 | 36.89733 | 5783 ft | 117 kts | 59° |
| 2026-04-26 11:01 | -1.33666 | 36.90410 | 5670 ft | 120 kts | 54° |
| 2026-04-26 11:01 | -1.33162 | 36.91086 | 5546 ft | 123 kts | 56° |
| 2026-04-26 11:01 | -1.32654 | 36.91781 | 5385 ft | 122 kts | 55° |
| 2026-04-26 11:01 | -1.32204 | 36.92394 | 5320 ft | 96 kts | 54° |
| 2026-04-26 11:02 | -1.31867 | 36.92853 | 5309 ft | 70 kts | 50° |
| 2026-04-26 11:02 | -1.31745 | 36.92965 | 5306 ft | 12 kts | 314° |
| 2026-04-26 11:02 | -1.31686 | 36.92918 | 5306 ft | 9 kts | 325° |
| 2026-04-26 11:02 | -1.31652 | 36.92895 | 5309 ft | 3 kts | 321° |
| 2026-04-26 11:03 | -1.31647 | 36.92861 | 5310 ft | 7 kts | 249° |
| 2026-04-26 11:03 | -1.31665 | 36.92827 | 5308 ft | 5 kts | 243° |
| 2026-04-26 11:03 | -1.31664 | 36.92802 | 5310 ft | 3 kts | 301° |
| 2026-04-26 11:03 | -1.31656 | 36.92793 | 5305 ft | 2 kts | 325° |
| 2026-04-26 11:04 | -1.31616 | 36.92769 | 5307 ft | 11 kts | 324° |
| 2026-04-26 11:04 | -1.31565 | 36.92782 | 5309 ft | 8 kts | 59° |
| 2026-04-26 11:04 | -1.31561 | 36.92788 | 5307 ft | 0 kts | 55° |